createdAt,value
2023-02-12T00:01:09.893Z,2.65
2023-02-12T00:03:37.995Z,3.15
2023-02-12T00:06:06.270Z,3.33
2023-02-12T00:08:33.949Z,2.92
2023-02-12T00:11:01.616Z,3.20
2023-02-12T00:13:32.305Z,3.03
2023-02-12T00:15:59.869Z,3.30
2023-02-12T00:18:28.797Z,3.20
2023-02-12T00:20:56.508Z,2.80
2023-02-12T00:23:24.146Z,3.58
2023-02-12T00:25:51.712Z,3.42
2023-02-12T00:28:19.346Z,3.35
2023-02-12T00:30:47.103Z,3.30
2023-02-12T00:33:14.762Z,2.92
2023-02-12T00:35:43.695Z,2.40
2023-02-12T00:38:11.489Z,2.75
2023-02-12T00:40:39.103Z,2.90
2023-02-12T00:43:07.097Z,2.50
2023-02-12T00:45:34.684Z,2.53
2023-02-12T00:48:02.266Z,3.08
2023-02-12T00:50:31.792Z,2.67
2023-02-12T00:53:02.571Z,1.85
2023-02-12T00:55:31.235Z,2.25
2023-02-12T00:57:58.803Z,2.28
2023-02-12T01:00:26.442Z,2.33
2023-02-12T01:02:54.094Z,1.98
2023-02-12T01:05:21.733Z,2.20
2023-02-12T01:07:51.155Z,1.67
2023-02-12T01:10:21.973Z,2.30
2023-02-12T01:12:50.303Z,2.38
2023-02-12T01:15:18.971Z,2.10
2023-02-12T01:17:46.966Z,2.25
2023-02-12T01:20:18.252Z,2.15
2023-02-12T01:22:46.376Z,2.10
2023-02-12T01:25:14.293Z,1.80
2023-02-12T01:27:43.286Z,1.80
2023-02-12T01:30:15.746Z,1.70
2023-02-12T01:32:43.977Z,1.98
2023-02-12T01:35:12.140Z,2.15
2023-02-12T01:37:42.453Z,2.28
2023-02-12T01:40:13.828Z,2.28
2023-02-12T01:42:42.746Z,2.00
2023-02-12T01:45:45.417Z,2.17
2023-02-12T01:48:14.244Z,2.65
2023-02-12T01:50:43.830Z,2.20
2023-02-12T01:53:19.883Z,2.22
2023-02-12T01:55:49.675Z,2.45
2023-02-12T01:58:18.909Z,3.40
2023-02-12T02:00:46.579Z,3.42
2023-02-12T02:03:14.941Z,2.55
2023-02-12T02:05:47.708Z,2.90
2023-02-12T02:08:15.483Z,3.47
2023-02-12T02:10:43.094Z,3.17
2023-02-12T02:13:28.500Z,3.28
2023-02-12T02:16:05.163Z,3.15
2023-02-12T02:18:39.184Z,3.33
2023-02-12T02:21:45.704Z,3.72
2023-02-12T02:24:30.975Z,3.75
2023-02-12T02:27:16.411Z,3.05
2023-02-12T02:30:34.784Z,3.22
2023-02-12T02:33:13.696Z,3.58
2023-02-12T02:35:48.458Z,3.05
2023-02-12T02:38:23.972Z,2.78
2023-02-12T02:40:57.335Z,2.90
2023-02-12T02:43:30.159Z,2.42
2023-02-12T02:46:02.720Z,2.75
2023-02-12T02:48:37.261Z,3.00
2023-02-12T02:51:09.368Z,2.70
2023-02-12T02:53:41.764Z,3.03
2023-02-12T02:56:14.975Z,2.95
2023-02-12T02:58:45.390Z,2.75
2023-02-12T03:01:17.980Z,2.95
2023-02-12T03:03:51.478Z,3.40
2023-02-12T03:06:26.410Z,2.78
2023-02-12T03:08:57.851Z,2.63
2023-02-12T03:11:27.577Z,3.15
2023-02-12T03:14:00.540Z,2.03
2023-02-12T03:16:30.523Z,3.03
2023-02-12T03:19:05.937Z,3.28
2023-02-12T03:21:38.443Z,2.47
2023-02-12T03:24:14.356Z,1.80
2023-02-12T03:26:46.930Z,2.95
2023-02-12T03:29:15.207Z,2.20
2023-02-12T03:31:54.923Z,2.00
2023-02-12T03:34:31.188Z,2.15
2023-02-12T03:37:04.252Z,2.42
2023-02-12T03:39:39.603Z,2.20
2023-02-12T03:42:12.042Z,2.10
2023-02-12T03:44:49.305Z,2.22
2023-02-12T03:47:24.708Z,2.80
2023-02-12T03:50:00.766Z,2.42
2023-02-12T03:52:30.166Z,2.42
2023-02-12T03:54:57.973Z,2.50
2023-02-12T03:57:30.662Z,2.67
2023-02-12T03:59:59.044Z,2.38
2023-02-12T04:02:27.188Z,2.33
2023-02-12T04:04:56.276Z,2.38
2023-02-12T04:07:23.954Z,1.95
2023-02-12T04:09:51.623Z,2.55
2023-02-12T04:12:35.695Z,2.55
2023-02-12T04:15:17.892Z,2.17
2023-02-12T04:17:51.905Z,2.67
2023-02-12T04:20:28.737Z,2.53
2023-02-12T04:23:07.182Z,3.20
2023-02-12T04:25:45.691Z,2.33
2023-02-12T04:28:24.363Z,3.38
2023-02-12T04:30:58.843Z,3.92
2023-02-12T04:33:29.746Z,3.58
2023-02-12T04:36:03.611Z,4.20
2023-02-12T04:38:36.066Z,4.43
2023-02-12T04:41:06.006Z,4.45
2023-02-12T04:43:36.811Z,4.43
2023-02-12T04:46:06.260Z,4.93
2023-02-12T04:48:34.915Z,4.65
2023-02-12T04:51:04.168Z,5.78
2023-02-12T04:53:31.764Z,6.65
2023-02-12T04:55:59.397Z,6.15
2023-02-12T04:58:26.960Z,6.80
2023-02-12T05:00:54.518Z,7.63
2023-02-12T05:03:22.098Z,8.25
2023-02-12T05:05:49.747Z,7.60
2023-02-12T05:08:18.714Z,7.75
2023-02-12T05:10:46.313Z,8.32
2023-02-12T05:13:13.863Z,7.50
2023-02-12T05:15:41.433Z,8.82
2023-02-12T05:18:09.030Z,7.68
2023-02-12T05:20:36.580Z,7.07
2023-02-12T05:23:04.343Z,6.68
2023-02-12T05:25:33.243Z,6.70
2023-02-12T05:28:00.866Z,7.20
2023-02-12T05:30:28.735Z,5.90
2023-02-12T05:32:56.323Z,6.60
2023-02-12T05:35:23.842Z,5.97
2023-02-12T05:37:51.385Z,6.53
2023-02-12T05:40:19.326Z,5.47
2023-02-12T05:42:48.261Z,5.47
2023-02-12T05:45:16.037Z,6.40
2023-02-12T05:47:43.687Z,6.25
2023-02-12T05:50:12.022Z,6.45
2023-02-12T05:52:39.633Z,5.85
2023-02-12T05:55:08.462Z,6.10
2023-02-12T05:57:36.023Z,6.32
2023-02-12T06:00:06.945Z,6.30
2023-02-12T06:02:39.795Z,7.38
2023-02-12T06:05:07.824Z,6.65
2023-02-12T06:07:35.370Z,6.88
2023-02-12T06:10:03.028Z,6.22
2023-02-12T06:12:30.658Z,6.75
2023-02-12T06:14:58.235Z,7.18
2023-02-12T06:17:27.247Z,7.70
2023-02-12T06:19:54.870Z,7.80
2023-02-12T06:22:22.438Z,6.40
2023-02-12T06:24:49.948Z,7.32
2023-02-12T06:27:17.547Z,7.68
2023-02-12T06:29:45.270Z,7.13
2023-02-12T06:32:13.617Z,8.02
2023-02-12T06:34:42.587Z,7.53
2023-02-12T06:37:10.353Z,7.78
2023-02-12T06:39:37.926Z,8.02
2023-02-12T06:42:05.823Z,8.77
2023-02-12T06:44:33.544Z,8.82
2023-02-12T06:47:01.270Z,7.80
2023-02-12T06:49:28.919Z,7.13
2023-02-12T06:51:57.836Z,8.40
2023-02-12T06:54:25.387Z,7.68
2023-02-12T06:56:52.947Z,7.28
2023-02-12T06:59:21.100Z,7.32
2023-02-12T07:01:48.638Z,8.30
2023-02-12T07:04:16.240Z,7.30
2023-02-12T07:06:43.943Z,8.65
2023-02-12T07:09:12.854Z,7.45
2023-02-12T07:11:40.438Z,7.70
2023-02-12T07:14:08.460Z,7.65
2023-02-12T07:16:36.100Z,7.75
2023-02-12T07:19:03.719Z,7.85
2023-02-12T07:21:31.944Z,7.93
2023-02-12T07:23:59.718Z,7.13
2023-02-12T07:26:28.830Z,7.82
2023-02-12T07:28:58.358Z,8.18
2023-02-12T07:31:26.071Z,7.85
2023-02-12T07:33:55.161Z,8.73
2023-02-12T07:36:23.070Z,8.40
2023-02-12T07:38:50.713Z,9.15
2023-02-12T07:41:20.042Z,8.15
2023-02-12T07:43:53.869Z,9.52
2023-02-12T07:46:26.231Z,9.80
2023-02-12T07:48:53.992Z,9.95
2023-02-12T07:51:24.475Z,10.15
2023-02-12T07:53:52.466Z,9.30
2023-02-12T07:56:22.217Z,9.27
2023-02-12T07:58:53.682Z,10.63
2023-02-12T08:01:24.136Z,9.18
2023-02-12T08:03:52.242Z,10.40
2023-02-12T08:06:24.059Z,10.77
2023-02-12T08:08:52.557Z,10.63
2023-02-12T08:11:20.441Z,10.60
2023-02-12T08:13:48.258Z,10.50
2023-02-12T08:16:19.456Z,11.20
2023-02-12T08:18:47.486Z,11.38
2023-02-12T08:21:18.052Z,11.70
2023-02-12T08:23:46.225Z,11.85
2023-02-12T08:26:15.478Z,13.15
2023-02-12T08:28:45.126Z,11.18
2023-02-12T08:31:15.625Z,11.93
2023-02-12T08:33:45.334Z,12.32
2023-02-12T08:36:15.669Z,12.48
2023-02-12T08:38:44.942Z,12.48
2023-02-12T08:41:14.722Z,12.85
2023-02-12T08:43:43.260Z,12.63
2023-02-12T08:46:12.910Z,11.80
2023-02-12T08:48:42.234Z,11.73
2023-02-12T08:51:13.697Z,12.90
2023-02-12T08:53:43.660Z,12.70
2023-02-12T08:56:12.523Z,11.98
2023-02-12T08:58:40.221Z,12.73
2023-02-12T09:01:11.984Z,13.38
2023-02-12T09:03:39.973Z,13.48
2023-02-12T09:06:08.233Z,11.73
2023-02-12T09:08:38.045Z,11.70
2023-02-12T09:11:07.153Z,11.52
2023-02-12T09:13:34.955Z,11.20
2023-02-12T09:16:03.931Z,11.75
2023-02-12T09:18:31.894Z,11.23
2023-02-12T09:21:02.711Z,11.07
2023-02-12T09:23:30.303Z,10.88
2023-02-12T09:25:59.253Z,11.93
2023-02-12T09:28:26.949Z,11.98
2023-02-12T09:30:54.596Z,10.98
2023-02-12T09:33:22.768Z,11.60
2023-02-12T09:35:50.515Z,11.85
2023-02-12T09:38:18.101Z,12.43
2023-02-12T09:40:52.579Z,11.70
2023-02-12T09:43:32.916Z,11.63
2023-02-12T09:46:05.730Z,12.32
2023-02-12T09:48:49.402Z,12.35
2023-02-12T09:51:17.144Z,13.00
2023-02-12T09:53:48.429Z,12.52
2023-02-12T09:56:19.446Z,12.65
2023-02-12T09:58:53.408Z,13.75
2023-02-12T10:01:23.039Z,13.18
2023-02-12T10:03:53.103Z,12.65
2023-02-12T10:06:22.645Z,12.40
2023-02-12T10:09:07.529Z,13.38
2023-02-12T10:11:44.421Z,12.55
2023-02-12T10:14:31.019Z,12.45
2023-02-12T10:17:03.570Z,11.88
2023-02-12T10:19:49.946Z,11.82
2023-02-12T10:22:27.144Z,11.82
2023-02-12T10:25:16.064Z,12.27
2023-02-12T10:27:49.515Z,11.85
2023-02-12T10:30:22.444Z,12.00
2023-02-12T10:32:53.812Z,12.80
2023-02-12T10:35:23.512Z,11.55
2023-02-12T10:37:56.805Z,10.90
2023-02-12T10:40:28.324Z,10.95
2023-02-12T10:42:57.267Z,10.73
2023-02-12T10:45:30.879Z,10.43
2023-02-12T10:48:09.333Z,10.75
2023-02-12T10:50:52.161Z,9.90
2023-02-12T10:53:23.507Z,10.05
2023-02-12T10:56:05.139Z,9.82
2023-02-12T10:58:32.755Z,10.50
2023-02-12T11:01:03.286Z,11.32
2023-02-12T11:03:34.299Z,10.20
2023-02-12T11:06:14.403Z,10.00
2023-02-12T11:08:42.403Z,9.57
2023-02-12T11:11:12.914Z,9.80
2023-02-12T11:13:43.506Z,10.10
2023-02-12T11:16:13.532Z,9.60
2023-02-12T11:18:41.583Z,10.18
2023-02-12T11:21:11.560Z,10.18
2023-02-12T11:23:40.784Z,10.80
2023-02-12T11:26:22.919Z,10.95
2023-02-12T11:28:55.405Z,9.48
2023-02-12T11:31:26.007Z,11.55
2023-02-12T11:34:15.536Z,12.40
2023-02-12T11:36:45.125Z,9.82
2023-02-12T11:39:22.232Z,10.55
2023-02-12T11:41:54.235Z,10.80
2023-02-12T11:44:23.835Z,9.68
2023-02-12T11:46:56.098Z,9.85
2023-02-12T11:49:26.633Z,8.82
2023-02-12T11:51:55.468Z,11.85
2023-02-12T11:54:26.682Z,10.25
2023-02-12T11:56:55.359Z,9.40
2023-02-12T11:59:34.637Z,10.38
2023-02-12T12:02:16.925Z,11.45
2023-02-12T12:04:47.368Z,11.52
2023-02-12T12:07:20.504Z,12.13
2023-02-12T12:09:51.168Z,11.63
2023-02-12T12:12:23.816Z,12.48
2023-02-12T12:15:11.820Z,11.45
2023-02-12T12:18:02.439Z,12.15
2023-02-12T12:20:33.815Z,12.02
2023-02-12T12:23:06.023Z,10.65
2023-02-12T12:25:41.676Z,11.18
2023-02-12T12:28:28.920Z,10.90
2023-02-12T12:31:06.983Z,9.68
2023-02-12T12:33:41.649Z,9.35
2023-02-12T12:36:35.002Z,8.98
2023-02-12T12:39:09.323Z,9.52
2023-02-12T12:41:42.854Z,8.43
2023-02-12T12:44:24.456Z,6.13
2023-02-12T12:47:02.436Z,7.70
2023-02-12T12:49:47.730Z,6.07
2023-02-12T12:52:29.008Z,5.65
2023-02-12T12:55:15.786Z,5.68
2023-02-12T12:57:51.349Z,5.15
2023-02-12T13:00:27.985Z,4.72
2023-02-12T13:03:24.890Z,5.32
2023-02-12T13:06:04.267Z,5.25
2023-02-12T13:08:56.882Z,5.15
2023-02-12T13:11:35.526Z,4.90
2023-02-12T13:14:18.692Z,4.80
2023-02-12T13:16:50.411Z,5.05
2023-02-12T13:19:28.512Z,5.35
2023-02-12T13:22:03.910Z,4.88
2023-02-12T13:24:37.960Z,3.60
2023-02-12T13:27:08.432Z,3.97
2023-02-12T13:29:39.546Z,3.55
2023-02-12T13:32:14.115Z,3.85
2023-02-12T13:34:44.169Z,3.72
2023-02-12T13:37:18.312Z,3.72
2023-02-12T13:39:49.330Z,4.07
2023-02-12T13:42:29.334Z,3.88
2023-02-12T13:45:01.828Z,3.65
2023-02-12T13:47:36.270Z,3.88
2023-02-12T13:50:15.019Z,3.88
2023-02-12T13:52:50.164Z,3.97
2023-02-12T13:55:25.666Z,3.97
2023-02-12T13:58:30.642Z,3.40
2023-02-12T14:01:01.153Z,3.47
2023-02-12T14:03:30.871Z,2.92
2023-02-12T14:06:16.881Z,3.25
2023-02-12T14:08:49.118Z,3.60
2023-02-12T14:11:19.525Z,3.30
2023-02-12T14:13:52.515Z,4.43
2023-02-12T14:16:38.478Z,3.08
2023-02-12T14:19:55.158Z,3.80
2023-02-12T14:23:02.551Z,5.10
2023-02-12T14:25:46.275Z,5.47
2023-02-12T14:28:25.614Z,6.35
2023-02-12T14:31:24.312Z,7.45
2023-02-12T14:33:53.800Z,6.68
2023-02-12T14:36:40.742Z,7.60
2023-02-12T14:39:30.921Z,7.35
2023-02-12T14:42:39.720Z,7.63
2023-02-12T14:45:28.435Z,7.20
2023-02-12T14:47:56.311Z,6.93
2023-02-12T14:50:29.651Z,7.15
2023-02-12T14:53:05.777Z,6.97
2023-02-12T14:55:35.884Z,6.68
2023-02-12T14:58:08.604Z,6.55
2023-02-12T15:00:39.934Z,6.32
2023-02-12T15:03:22.169Z,7.82
2023-02-12T15:05:57.160Z,6.80
2023-02-12T15:08:31.993Z,6.32
2023-02-12T15:11:07.739Z,6.70
2023-02-12T15:13:47.177Z,7.68
2023-02-12T15:16:23.065Z,6.28
2023-02-12T15:18:57.608Z,6.47
2023-02-12T15:21:27.687Z,13.48
2023-02-12T15:24:05.206Z,7.20
2023-02-12T15:26:35.920Z,7.50
2023-02-12T15:29:05.505Z,6.50
2023-02-12T15:31:34.512Z,7.43
2023-02-12T15:34:04.105Z,6.22
2023-02-12T15:36:34.315Z,6.25
2023-02-12T15:39:04.325Z,5.65
2023-02-12T15:41:41.911Z,5.20
2023-02-12T15:44:26.143Z,5.53
2023-02-12T15:46:59.388Z,5.60
2023-02-12T15:49:30.210Z,4.95
2023-02-12T15:51:59.243Z,4.90
2023-02-12T15:54:28.203Z,4.95
2023-02-12T15:56:56.507Z,4.75
2023-02-12T15:59:29.294Z,5.07
2023-02-12T16:02:00.449Z,4.75
2023-02-12T16:04:31.307Z,4.88
2023-02-12T16:07:00.152Z,4.72
2023-02-12T16:09:31.402Z,5.68
2023-02-12T16:12:01.624Z,5.30
2023-02-12T16:14:39.441Z,6.22
2023-02-12T16:17:22.589Z,5.53
2023-02-12T16:19:58.618Z,6.47
2023-02-12T16:22:29.313Z,9.27
2023-02-12T16:24:57.704Z,8.95
2023-02-12T16:27:28.071Z,5.32
2023-02-12T16:29:59.972Z,8.13
2023-02-12T16:32:30.584Z,5.05
2023-02-12T16:35:04.470Z,5.70
2023-02-12T16:37:44.892Z,6.43
2023-02-12T16:40:32.201Z,5.82
2023-02-12T16:43:03.942Z,5.60
2023-02-12T16:45:38.763Z,7.35
2023-02-12T16:48:16.272Z,8.90
2023-02-12T16:50:49.682Z,7.70
2023-02-12T16:53:47.003Z,6.53
2023-02-12T16:56:18.202Z,5.22
2023-02-12T16:58:46.968Z,5.30
2023-02-12T17:01:20.575Z,5.53
2023-02-12T17:03:50.478Z,5.78
2023-02-12T17:06:20.265Z,7.10
2023-02-12T17:08:47.926Z,5.45
2023-02-12T17:11:17.678Z,8.90
2023-02-12T17:13:46.407Z,4.82
2023-02-12T17:16:18.887Z,5.00
2023-02-12T17:18:57.845Z,10.43
2023-02-12T17:21:28.447Z,4.82
2023-02-12T17:23:56.140Z,5.32
2023-02-12T17:26:24.264Z,5.88
2023-02-12T17:28:51.931Z,5.80
2023-02-12T17:31:20.691Z,5.60
2023-02-12T17:33:49.541Z,5.90
2023-02-12T17:36:18.713Z,6.22
2023-02-12T17:38:46.363Z,5.28
2023-02-12T17:41:14.076Z,4.97
2023-02-12T17:43:41.753Z,5.40
2023-02-12T17:46:11.047Z,4.63
2023-02-12T17:48:38.753Z,5.90
2023-02-12T17:51:06.575Z,5.35
2023-02-12T17:53:35.519Z,6.18
2023-02-12T17:56:03.091Z,6.13
2023-02-12T17:58:31.156Z,6.82
2023-02-12T18:01:04.441Z,7.13
2023-02-12T18:03:32.018Z,6.75
2023-02-12T18:06:01.026Z,6.85
2023-02-12T18:08:31.766Z,7.28
2023-02-12T18:11:06.177Z,7.00
2023-02-12T18:13:33.912Z,7.15
2023-02-12T18:16:01.983Z,7.50
2023-02-12T18:18:29.549Z,7.95
2023-02-12T18:20:57.374Z,8.20
2023-02-12T18:23:25.188Z,7.18
2023-02-12T18:25:52.686Z,7.38
2023-02-12T18:28:21.812Z,7.95
2023-02-12T18:30:56.787Z,7.63
2023-02-12T18:33:24.899Z,8.60
2023-02-12T18:36:02.901Z,8.50
2023-02-12T18:38:30.853Z,8.00
2023-02-12T18:40:59.692Z,8.70
2023-02-12T18:43:28.607Z,7.72
2023-02-12T18:45:56.189Z,8.45
2023-02-12T18:48:23.858Z,9.75
2023-02-12T18:50:55.196Z,10.00
2023-02-12T18:53:22.893Z,9.50
2023-02-12T18:55:50.590Z,10.35
2023-02-12T18:58:18.141Z,10.38
2023-02-12T19:00:47.056Z,10.93
2023-02-12T19:03:14.559Z,11.30
2023-02-12T19:05:42.323Z,11.35
2023-02-12T19:08:10.366Z,11.18
2023-02-12T19:10:40.010Z,11.18
2023-02-12T19:13:07.646Z,10.70
2023-02-12T19:15:35.571Z,11.43
2023-02-12T19:18:05.185Z,12.35
2023-02-12T19:20:33.737Z,12.20
2023-02-12T19:23:01.441Z,11.55
2023-02-12T19:25:29.075Z,12.18
2023-02-12T19:27:56.616Z,11.43
2023-02-12T19:30:24.361Z,11.85
2023-02-12T19:32:51.860Z,13.02
2023-02-12T19:35:20.796Z,12.20
2023-02-12T19:37:48.356Z,12.80
2023-02-12T19:40:15.972Z,11.65
2023-02-12T19:42:43.516Z,12.52
2023-02-12T19:45:11.127Z,12.43
2023-02-12T19:47:38.686Z,11.77
2023-02-12T19:50:07.544Z,12.15
2023-02-12T19:52:37.226Z,13.02
2023-02-12T19:55:05.030Z,13.43
2023-02-12T19:57:32.713Z,13.98
2023-02-12T20:00:00.493Z,15.20
2023-02-12T20:02:28.302Z,13.90
2023-02-12T20:04:55.968Z,14.43
2023-02-12T20:07:23.603Z,13.70
2023-02-12T20:09:52.605Z,14.20
2023-02-12T20:12:20.195Z,15.30
2023-02-12T20:14:47.702Z,15.18
2023-02-12T20:17:15.349Z,14.40
2023-02-12T20:19:42.913Z,14.30
2023-02-12T20:22:10.567Z,14.30
2023-02-12T20:24:38.147Z,14.23
2023-02-12T20:27:07.129Z,13.43
2023-02-12T20:29:34.977Z,13.27
2023-02-12T20:32:02.624Z,13.75
2023-02-12T20:34:32.894Z,13.23
2023-02-12T20:37:05.979Z,13.02
2023-02-12T20:39:33.656Z,13.88
2023-02-12T20:42:01.225Z,13.80
2023-02-12T20:44:30.975Z,13.10
2023-02-12T20:46:58.556Z,13.57
2023-02-12T20:49:26.673Z,13.40
2023-02-12T20:51:54.396Z,13.55
2023-02-12T20:54:22.317Z,13.35
2023-02-12T20:56:50.508Z,12.73
2023-02-12T20:59:18.785Z,13.57
2023-02-12T21:01:47.975Z,14.35
2023-02-12T21:04:17.551Z,13.68
2023-02-12T21:06:47.274Z,16.00
2023-02-12T21:09:15.865Z,15.30
2023-02-12T21:11:45.626Z,14.30
2023-02-12T21:14:23.999Z,15.07
2023-02-12T21:16:54.948Z,13.07
2023-02-12T21:19:23.391Z,12.95
2023-02-12T21:21:51.080Z,13.82
2023-02-12T21:24:21.919Z,12.73
2023-02-12T21:26:50.160Z,14.05
2023-02-12T21:29:17.762Z,13.65
2023-02-12T21:31:47.295Z,13.90
2023-02-12T21:34:18.166Z,13.20
2023-02-12T21:36:47.287Z,12.98
2023-02-12T21:39:24.027Z,12.27
2023-02-12T21:41:53.115Z,12.57
2023-02-12T21:44:21.567Z,11.82
2023-02-12T21:46:49.183Z,15.70
2023-02-12T21:49:24.881Z,16.00
2023-02-12T21:51:53.987Z,15.45
2023-02-12T21:54:22.690Z,16.33
2023-02-12T21:56:51.338Z,14.65
2023-02-12T21:59:19.978Z,14.55
2023-02-12T22:01:49.202Z,14.18
2023-02-12T22:04:19.565Z,14.48
2023-02-12T22:06:49.096Z,12.50
2023-02-12T22:09:20.779Z,12.43
2023-02-12T22:11:48.460Z,12.57
2023-02-12T22:14:17.827Z,12.75
2023-02-12T22:16:45.816Z,11.90
2023-02-12T22:19:13.572Z,12.23
2023-02-12T22:21:43.442Z,13.45
2023-02-12T22:24:16.783Z,12.45
2023-02-12T22:26:45.131Z,12.50
2023-02-12T22:29:14.426Z,12.52
2023-02-12T22:31:43.394Z,12.27
2023-02-12T22:34:13.308Z,12.52
2023-02-12T22:36:42.889Z,11.85
2023-02-12T22:39:12.767Z,12.40
2023-02-12T22:41:41.847Z,12.80
2023-02-12T22:44:11.082Z,11.73
2023-02-12T22:46:38.690Z,11.73
2023-02-12T22:49:06.243Z,12.38
2023-02-12T22:51:35.145Z,12.38
2023-02-12T22:54:06.018Z,11.50
2023-02-12T22:56:34.155Z,11.27
2023-02-12T22:59:02.618Z,12.50
2023-02-12T23:01:31.332Z,12.27
2023-02-12T23:03:59.697Z,12.05
2023-02-12T23:06:29.170Z,12.13
2023-02-12T23:08:59.636Z,10.93
2023-02-12T23:11:29.575Z,10.98
2023-02-12T23:13:57.669Z,11.52
2023-02-12T23:16:25.860Z,10.90
2023-02-12T23:18:56.167Z,12.10
2023-02-12T23:21:23.906Z,12.18
2023-02-12T23:23:51.449Z,12.45
2023-02-12T23:26:19.418Z,12.02
2023-02-12T23:28:48.338Z,12.10
2023-02-12T23:31:16.074Z,12.25
2023-02-12T23:33:43.897Z,9.90
2023-02-12T23:36:11.409Z,12.15
2023-02-12T23:38:39.025Z,11.95
2023-02-12T23:41:06.862Z,11.77
2023-02-12T23:43:34.521Z,10.82
2023-02-12T23:46:03.959Z,12.75
2023-02-12T23:48:31.759Z,11.57
2023-02-12T23:50:59.704Z,12.85
2023-02-12T23:53:27.485Z,11.77
2023-02-12T23:55:55.169Z,11.63
2023-02-12T23:58:22.725Z,12.50
